sensor_id;sensor_type;location;lat;lon;timestamp;temperature;humidity
62916;DHT22;49010;51.230;-2.306;2022-08-19T00:01:16;22.10;83.00
62916;DHT22;49010;51.230;-2.306;2022-08-19T00:05:10;22.10;83.00
62916;DHT22;49010;51.230;-2.306;2022-08-19T00:08:53;22.00;82.90
62916;DHT22;49010;51.230;-2.306;2022-08-19T00:12:35;22.00;82.90
62916;DHT22;49010;51.230;-2.306;2022-08-19T00:16:27;22.00;83.20
62916;DHT22;49010;51.230;-2.306;2022-08-19T00:20:12;22.00;83.30
62916;DHT22;49010;51.230;-2.306;2022-08-19T00:23:54;22.00;83.40
62916;DHT22;49010;51.230;-2.306;2022-08-19T00:27:40;21.90;83.30
62916;DHT22;49010;51.230;-2.306;2022-08-19T00:31:22;21.90;83.50
62916;DHT22;49010;51.230;-2.306;2022-08-19T00:35:04;21.90;83.20
62916;DHT22;49010;51.230;-2.306;2022-08-19T00:38:46;21.90;83.00
62916;DHT22;49010;51.230;-2.306;2022-08-19T00:42:28;21.90;83.10
62916;DHT22;49010;51.230;-2.306;2022-08-19T00:46:10;21.90;82.90
62916;DHT22;49010;51.230;-2.306;2022-08-19T00:49:57;21.80;82.80
62916;DHT22;49010;51.230;-2.306;2022-08-19T00:53:40;21.80;82.60
62916;DHT22;49010;51.230;-2.306;2022-08-19T00:57:29;21.80;82.60
62916;DHT22;49010;51.230;-2.306;2022-08-19T01:01:11;21.80;82.50
62916;DHT22;49010;51.230;-2.306;2022-08-19T01:04:55;21.80;82.70
62916;DHT22;49010;51.230;-2.306;2022-08-19T01:08:37;21.80;82.40
62916;DHT22;49010;51.230;-2.306;2022-08-19T01:12:20;21.70;82.70
62916;DHT22;49010;51.230;-2.306;2022-08-19T01:16:08;21.70;82.70
62916;DHT22;49010;51.230;-2.306;2022-08-19T01:19:52;21.70;82.40
62916;DHT22;49010;51.230;-2.306;2022-08-19T01:23:33;21.70;82.30
62916;DHT22;49010;51.230;-2.306;2022-08-19T01:27:24;21.60;82.30
62916;DHT22;49010;51.230;-2.306;2022-08-19T01:31:13;21.60;82.50
62916;DHT22;49010;51.230;-2.306;2022-08-19T01:35:09;21.50;82.70
62916;DHT22;49010;51.230;-2.306;2022-08-19T01:38:51;21.40;83.00
62916;DHT22;49010;51.230;-2.306;2022-08-19T01:42:32;21.40;83.30
62916;DHT22;49010;51.230;-2.306;2022-08-19T01:46:14;21.40;83.40
62916;DHT22;49010;51.230;-2.306;2022-08-19T01:49:58;21.30;83.50
62916;DHT22;49010;51.230;-2.306;2022-08-19T01:53:41;21.30;83.80
62916;DHT22;49010;51.230;-2.306;2022-08-19T01:57:23;21.30;84.60
62916;DHT22;49010;51.230;-2.306;2022-08-19T02:01:05;21.30;85.00
62916;DHT22;49010;51.230;-2.306;2022-08-19T02:04:48;21.20;85.30
62916;DHT22;49010;51.230;-2.306;2022-08-19T02:08:31;21.20;85.30
62916;DHT22;49010;51.230;-2.306;2022-08-19T02:12:14;21.10;85.80
62916;DHT22;49010;51.230;-2.306;2022-08-19T02:15:56;21.00;86.60
62916;DHT22;49010;51.230;-2.306;2022-08-19T02:19:38;20.90;85.90
62916;DHT22;49010;51.230;-2.306;2022-08-19T02:23:21;20.90;85.60
62916;DHT22;49010;51.230;-2.306;2022-08-19T02:27:03;20.90;85.30
62916;DHT22;49010;51.230;-2.306;2022-08-19T02:30:47;20.90;85.00
62916;DHT22;49010;51.230;-2.306;2022-08-19T02:34:29;20.90;85.00
62916;DHT22;49010;51.230;-2.306;2022-08-19T02:38:11;20.80;84.90
62916;DHT22;49010;51.230;-2.306;2022-08-19T02:42:07;20.70;84.70
62916;DHT22;49010;51.230;-2.306;2022-08-19T02:45:50;20.70;85.20
62916;DHT22;49010;51.230;-2.306;2022-08-19T02:49:32;20.70;85.40
62916;DHT22;49010;51.230;-2.306;2022-08-19T02:53:15;20.70;85.50
62916;DHT22;49010;51.230;-2.306;2022-08-19T02:56:57;20.70;85.10
62916;DHT22;49010;51.230;-2.306;2022-08-19T03:00:48;20.70;85.40
62916;DHT22;49010;51.230;-2.306;2022-08-19T03:04:30;20.70;85.20
62916;DHT22;49010;51.230;-2.306;2022-08-19T03:08:13;20.70;84.90
62916;DHT22;49010;51.230;-2.306;2022-08-19T03:11:55;20.70;84.70
62916;DHT22;49010;51.230;-2.306;2022-08-19T03:15:41;20.70;85.00
62916;DHT22;49010;51.230;-2.306;2022-08-19T03:19:24;20.60;84.90
62916;DHT22;49010;51.230;-2.306;2022-08-19T03:23:05;20.60;83.40
62916;DHT22;49010;51.230;-2.306;2022-08-19T03:26:51;20.50;84.20
62916;DHT22;49010;51.230;-2.306;2022-08-19T03:30:33;20.50;84.10
62916;DHT22;49010;51.230;-2.306;2022-08-19T03:34:26;20.40;84.00
62916;DHT22;49010;51.230;-2.306;2022-08-19T03:38:08;20.40;83.90
62916;DHT22;49010;51.230;-2.306;2022-08-19T03:41:51;20.40;83.90
62916;DHT22;49010;51.230;-2.306;2022-08-19T03:46:00;20.30;83.90
62916;DHT22;49010;51.230;-2.306;2022-08-19T03:49:43;20.30;83.80
62916;DHT22;49010;51.230;-2.306;2022-08-19T03:53:26;20.30;83.80
62916;DHT22;49010;51.230;-2.306;2022-08-19T03:57:09;20.30;83.90
62916;DHT22;49010;51.230;-2.306;2022-08-19T04:00:51;20.30;83.70
62916;DHT22;49010;51.230;-2.306;2022-08-19T04:04:33;20.20;83.90
62916;DHT22;49010;51.230;-2.306;2022-08-19T04:08:16;20.20;83.70
62916;DHT22;49010;51.230;-2.306;2022-08-19T04:12:00;20.20;83.50
62916;DHT22;49010;51.230;-2.306;2022-08-19T04:15:44;20.20;83.30
62916;DHT22;49010;51.230;-2.306;2022-08-19T04:19:28;20.20;83.20
62916;DHT22;49010;51.230;-2.306;2022-08-19T04:23:12;20.10;83.50
62916;DHT22;49010;51.230;-2.306;2022-08-19T04:26:54;20.20;83.40
62916;DHT22;49010;51.230;-2.306;2022-08-19T04:30:44;20.10;83.20
62916;DHT22;49010;51.230;-2.306;2022-08-19T04:34:27;20.20;82.70
62916;DHT22;49010;51.230;-2.306;2022-08-19T04:38:10;20.20;81.40
62916;DHT22;49010;51.230;-2.306;2022-08-19T04:41:52;20.10;81.20
62916;DHT22;49010;51.230;-2.306;2022-08-19T04:45:53;20.10;81.40
62916;DHT22;49010;51.230;-2.306;2022-08-19T04:49:41;20.10;81.60
62916;DHT22;49010;51.230;-2.306;2022-08-19T04:53:31;20.10;81.00
62916;DHT22;49010;51.230;-2.306;2022-08-19T04:57:18;20.00;80.10
62916;DHT22;49010;51.230;-2.306;2022-08-19T05:01:00;20.00;79.30
62916;DHT22;49010;51.230;-2.306;2022-08-19T05:04:42;19.90;79.40
62916;DHT22;49010;51.230;-2.306;2022-08-19T05:08:24;20.00;79.30
62916;DHT22;49010;51.230;-2.306;2022-08-19T05:12:12;20.00;79.00
62916;DHT22;49010;51.230;-2.306;2022-08-19T05:15:56;19.90;79.30
62916;DHT22;49010;51.230;-2.306;2022-08-19T05:19:39;19.90;79.50
62916;DHT22;49010;51.230;-2.306;2022-08-19T05:23:40;19.80;79.70
62916;DHT22;49010;51.230;-2.306;2022-08-19T05:27:22;19.90;80.00
62916;DHT22;49010;51.230;-2.306;2022-08-19T05:31:04;19.80;79.70
62916;DHT22;49010;51.230;-2.306;2022-08-19T05:34:46;19.80;79.60
62916;DHT22;49010;51.230;-2.306;2022-08-19T05:38:28;19.80;79.50
62916;DHT22;49010;51.230;-2.306;2022-08-19T05:42:12;19.80;79.20
62916;DHT22;49010;51.230;-2.306;2022-08-19T05:45:54;19.80;79.20
62916;DHT22;49010;51.230;-2.306;2022-08-19T05:49:37;19.70;79.60
62916;DHT22;49010;51.230;-2.306;2022-08-19T05:53:19;19.70;79.70
62916;DHT22;49010;51.230;-2.306;2022-08-19T05:57:01;19.70;79.70
62916;DHT22;49010;51.230;-2.306;2022-08-19T06:00:44;19.60;80.40
62916;DHT22;49010;51.230;-2.306;2022-08-19T06:04:26;19.60;80.80
62916;DHT22;49010;51.230;-2.306;2022-08-19T06:08:08;19.60;80.90
62916;DHT22;49010;51.230;-2.306;2022-08-19T06:11:53;19.60;81.00
62916;DHT22;49010;51.230;-2.306;2022-08-19T06:15:36;19.60;81.00
62916;DHT22;49010;51.230;-2.306;2022-08-19T06:19:21;19.50;80.60
62916;DHT22;49010;51.230;-2.306;2022-08-19T06:23:03;19.50;80.00
62916;DHT22;49010;51.230;-2.306;2022-08-19T06:26:47;19.50;80.10
62916;DHT22;49010;51.230;-2.306;2022-08-19T06:30:29;19.40;78.40
62916;DHT22;49010;51.230;-2.306;2022-08-19T06:34:12;19.40;78.40
62916;DHT22;49010;51.230;-2.306;2022-08-19T06:37:54;19.30;78.10
62916;DHT22;49010;51.230;-2.306;2022-08-19T06:41:41;19.30;77.20
62916;DHT22;49010;51.230;-2.306;2022-08-19T06:45:31;19.20;76.50
62916;DHT22;49010;51.230;-2.306;2022-08-19T06:49:17;19.20;76.60
62916;DHT22;49010;51.230;-2.306;2022-08-19T06:52:59;19.20;76.00
62916;DHT22;49010;51.230;-2.306;2022-08-19T06:56:45;19.20;75.90
62916;DHT22;49010;51.230;-2.306;2022-08-19T07:00:27;19.20;77.10
62916;DHT22;49010;51.230;-2.306;2022-08-19T07:04:09;19.20;76.90
62916;DHT22;49010;51.230;-2.306;2022-08-19T07:07:52;19.30;75.60
62916;DHT22;49010;51.230;-2.306;2022-08-19T07:11:43;19.30;75.30
62916;DHT22;49010;51.230;-2.306;2022-08-19T07:15:25;19.50;74.40
62916;DHT22;49010;51.230;-2.306;2022-08-19T07:19:07;19.70;75.80
62916;DHT22;49010;51.230;-2.306;2022-08-19T07:22:56;19.70;72.10
62916;DHT22;49010;51.230;-2.306;2022-08-19T07:26:40;19.80;70.00
62916;DHT22;49010;51.230;-2.306;2022-08-19T07:30:22;19.80;69.00
62916;DHT22;49010;51.230;-2.306;2022-08-19T07:34:08;19.90;65.70
62916;DHT22;49010;51.230;-2.306;2022-08-19T07:37:50;19.90;64.10
62916;DHT22;49010;51.230;-2.306;2022-08-19T07:41:32;19.90;63.10
62916;DHT22;49010;51.230;-2.306;2022-08-19T07:45:15;19.80;60.80
62916;DHT22;49010;51.230;-2.306;2022-08-19T07:48:58;19.80;60.90
62916;DHT22;49010;51.230;-2.306;2022-08-19T07:52:40;19.80;60.50
62916;DHT22;49010;51.230;-2.306;2022-08-19T07:56:22;19.70;60.20
62916;DHT22;49010;51.230;-2.306;2022-08-19T08:00:05;19.70;59.30
62916;DHT22;49010;51.230;-2.306;2022-08-19T08:03:49;19.60;59.60
62916;DHT22;49010;51.230;-2.306;2022-08-19T08:07:49;19.60;59.70
62916;DHT22;49010;51.230;-2.306;2022-08-19T08:11:56;19.50;59.80
62916;DHT22;49010;51.230;-2.306;2022-08-19T08:15:45;19.50;60.50
62916;DHT22;49010;51.230;-2.306;2022-08-19T08:19:28;19.50;60.10
62916;DHT22;49010;51.230;-2.306;2022-08-19T08:23:10;19.40;60.00
62916;DHT22;49010;51.230;-2.306;2022-08-19T08:27:04;19.40;61.20
62916;DHT22;49010;51.230;-2.306;2022-08-19T08:30:52;19.50;59.70
62916;DHT22;49010;51.230;-2.306;2022-08-19T08:34:33;19.50;58.80
62916;DHT22;49010;51.230;-2.306;2022-08-19T08:38:15;19.50;59.10
62916;DHT22;49010;51.230;-2.306;2022-08-19T08:42:17;19.50;59.40
62916;DHT22;49010;51.230;-2.306;2022-08-19T08:46:34;19.60;59.10
62916;DHT22;49010;51.230;-2.306;2022-08-19T08:50:34;19.60;60.80
62916;DHT22;49010;51.230;-2.306;2022-08-19T08:54:20;19.60;58.40
62916;DHT22;49010;51.230;-2.306;2022-08-19T08:58:12;19.60;57.90
62916;DHT22;49010;51.230;-2.306;2022-08-19T09:01:57;19.70;57.70
62916;DHT22;49010;51.230;-2.306;2022-08-19T09:06:04;19.70;57.10
62916;DHT22;49010;51.230;-2.306;2022-08-19T09:09:52;19.70;56.20
62916;DHT22;49010;51.230;-2.306;2022-08-19T09:14:10;19.80;57.30
62916;DHT22;49010;51.230;-2.306;2022-08-19T09:18:15;19.80;58.10
62916;DHT22;49010;51.230;-2.306;2022-08-19T09:22:00;19.80;55.70
62916;DHT22;49010;51.230;-2.306;2022-08-19T09:25:42;19.80;56.00
62916;DHT22;49010;51.230;-2.306;2022-08-19T09:29:24;19.90;55.30
62916;DHT22;49010;51.230;-2.306;2022-08-19T09:33:06;20.00;54.80
62916;DHT22;49010;51.230;-2.306;2022-08-19T09:36:49;20.10;54.80
62916;DHT22;49010;51.230;-2.306;2022-08-19T09:40:35;20.20;54.50
62916;DHT22;49010;51.230;-2.306;2022-08-19T09:44:19;20.40;53.60
62916;DHT22;49010;51.230;-2.306;2022-08-19T09:48:07;20.60;53.40
62916;DHT22;49010;51.230;-2.306;2022-08-19T09:51:51;20.90;52.90
62916;DHT22;49010;51.230;-2.306;2022-08-19T09:55:33;21.50;51.90
62916;DHT22;49010;51.230;-2.306;2022-08-19T09:59:15;22.40;49.00
62916;DHT22;49010;51.230;-2.306;2022-08-19T10:02:57;23.30;47.90
62916;DHT22;49010;51.230;-2.306;2022-08-19T10:06:39;23.80;46.10
62916;DHT22;49010;51.230;-2.306;2022-08-19T10:10:27;24.40;45.40
62916;DHT22;49010;51.230;-2.306;2022-08-19T10:14:09;24.60;45.40
62916;DHT22;49010;51.230;-2.306;2022-08-19T10:17:51;24.90;44.40
62916;DHT22;49010;51.230;-2.306;2022-08-19T10:21:36;25.20;44.90
62916;DHT22;49010;51.230;-2.306;2022-08-19T10:25:21;25.80;44.40
62916;DHT22;49010;51.230;-2.306;2022-08-19T10:29:04;26.70;43.30
62916;DHT22;49010;51.230;-2.306;2022-08-19T10:32:49;27.70;40.90
62916;DHT22;49010;51.230;-2.306;2022-08-19T10:36:34;28.70;39.80
62916;DHT22;49010;51.230;-2.306;2022-08-19T10:40:36;29.60;38.00
62916;DHT22;49010;51.230;-2.306;2022-08-19T10:44:18;30.50;49.90
62916;DHT22;49010;51.230;-2.306;2022-08-19T10:48:01;31.00;36.80
62916;DHT22;49010;51.230;-2.306;2022-08-19T10:51:43;31.50;36.10
62916;DHT22;49010;51.230;-2.306;2022-08-19T10:55:44;32.10;36.20
62916;DHT22;49010;51.230;-2.306;2022-08-19T10:59:44;32.90;34.60
62916;DHT22;49010;51.230;-2.306;2022-08-19T11:03:27;32.90;34.10
62916;DHT22;49010;51.230;-2.306;2022-08-19T11:07:12;32.40;34.20
62916;DHT22;49010;51.230;-2.306;2022-08-19T11:10:54;31.60;35.00
62916;DHT22;49010;51.230;-2.306;2022-08-19T11:14:39;30.70;37.30
62916;DHT22;49010;51.230;-2.306;2022-08-19T11:18:21;29.80;38.20
62916;DHT22;49010;51.230;-2.306;2022-08-19T11:22:03;29.00;40.30
62916;DHT22;49010;51.230;-2.306;2022-08-19T11:25:45;28.50;40.70
62916;DHT22;49010;51.230;-2.306;2022-08-19T11:29:27;28.50;41.10
62916;DHT22;49010;51.230;-2.306;2022-08-19T11:33:10;28.90;40.10
62916;DHT22;49010;51.230;-2.306;2022-08-19T11:36:53;29.80;40.90
62916;DHT22;49010;51.230;-2.306;2022-08-19T11:40:36;31.00;38.00
62916;DHT22;49010;51.230;-2.306;2022-08-19T11:44:18;32.20;37.60
62916;DHT22;49010;51.230;-2.306;2022-08-19T11:47:59;33.20;34.40
62916;DHT22;49010;51.230;-2.306;2022-08-19T11:51:42;34.10;34.10
62916;DHT22;49010;51.230;-2.306;2022-08-19T11:55:24;34.90;32.90
62916;DHT22;49010;51.230;-2.306;2022-08-19T11:59:06;35.30;32.50
62916;DHT22;49010;51.230;-2.306;2022-08-19T12:02:55;35.70;31.50
62916;DHT22;49010;51.230;-2.306;2022-08-19T12:06:38;36.00;32.40
62916;DHT22;49010;51.230;-2.306;2022-08-19T12:10:21;36.00;32.30
62916;DHT22;49010;51.230;-2.306;2022-08-19T12:14:10;36.10;31.60
62916;DHT22;49010;51.230;-2.306;2022-08-19T12:17:57;36.20;31.10
62916;DHT22;49010;51.230;-2.306;2022-08-19T12:21:39;36.40;31.40
62916;DHT22;49010;51.230;-2.306;2022-08-19T12:25:21;35.90;31.90
62916;DHT22;49010;51.230;-2.306;2022-08-19T12:29:04;35.30;31.40
62916;DHT22;49010;51.230;-2.306;2022-08-19T12:32:46;35.30;31.40
62916;DHT22;49010;51.230;-2.306;2022-08-19T12:36:28;35.60;32.00
62916;DHT22;49010;51.230;-2.306;2022-08-19T12:40:10;36.00;31.70
62916;DHT22;49010;51.230;-2.306;2022-08-19T12:43:53;36.20;30.60
62916;DHT22;49010;51.230;-2.306;2022-08-19T12:47:36;35.70;31.10
62916;DHT22;49010;51.230;-2.306;2022-08-19T12:51:22;34.90;31.80
62916;DHT22;49010;51.230;-2.306;2022-08-19T12:55:06;34.70;32.00
62916;DHT22;49010;51.230;-2.306;2022-08-19T12:58:48;34.80;32.10
62916;DHT22;49010;51.230;-2.306;2022-08-19T13:02:33;35.20;31.00
62916;DHT22;49010;51.230;-2.306;2022-08-19T13:06:19;35.20;31.50
62916;DHT22;49010;51.230;-2.306;2022-08-19T13:10:06;35.20;30.40
62916;DHT22;49010;51.230;-2.306;2022-08-19T13:13:51;35.40;30.60
62916;DHT22;49010;51.230;-2.306;2022-08-19T13:17:34;35.90;29.40
62916;DHT22;49010;51.230;-2.306;2022-08-19T13:21:16;36.10;29.40
62916;DHT22;49010;51.230;-2.306;2022-08-19T13:25:02;36.00;29.30
62916;DHT22;49010;51.230;-2.306;2022-08-19T13:28:45;36.30;30.00
62916;DHT22;49010;51.230;-2.306;2022-08-19T13:32:45;36.70;29.90
62916;DHT22;49010;51.230;-2.306;2022-08-19T13:36:46;37.10;29.40
62916;DHT22;49010;51.230;-2.306;2022-08-19T13:40:28;37.10;29.30
62916;DHT22;49010;51.230;-2.306;2022-08-19T13:44:10;36.40;29.90
62916;DHT22;49010;51.230;-2.306;2022-08-19T13:47:54;36.20;30.80
62916;DHT22;49010;51.230;-2.306;2022-08-19T13:51:41;36.40;30.40
62916;DHT22;49010;51.230;-2.306;2022-08-19T13:55:25;36.50;30.00
62916;DHT22;49010;51.230;-2.306;2022-08-19T13:59:07;36.70;30.00
62916;DHT22;49010;51.230;-2.306;2022-08-19T14:02:52;37.00;29.70
62916;DHT22;49010;51.230;-2.306;2022-08-19T14:06:34;36.90;29.70
62916;DHT22;49010;51.230;-2.306;2022-08-19T14:10:17;37.30;29.30
62916;DHT22;49010;51.230;-2.306;2022-08-19T14:14:00;37.40;29.50
62916;DHT22;49010;51.230;-2.306;2022-08-19T14:17:43;37.50;28.90
62916;DHT22;49010;51.230;-2.306;2022-08-19T14:21:26;37.30;29.40
62916;DHT22;49010;51.230;-2.306;2022-08-19T14:25:12;36.80;29.10
62916;DHT22;49010;51.230;-2.306;2022-08-19T14:28:54;36.20;29.80
62916;DHT22;49010;51.230;-2.306;2022-08-19T14:32:39;36.10;29.80
62916;DHT22;49010;51.230;-2.306;2022-08-19T14:36:21;36.00;29.80
62916;DHT22;49010;51.230;-2.306;2022-08-19T14:40:03;36.00;29.30
62916;DHT22;49010;51.230;-2.306;2022-08-19T14:43:48;35.90;29.80
62916;DHT22;49010;51.230;-2.306;2022-08-19T14:47:31;35.60;29.90
62916;DHT22;49010;51.230;-2.306;2022-08-19T14:51:13;35.20;32.50
62916;DHT22;49010;51.230;-2.306;2022-08-19T14:54:55;34.30;31.00
62916;DHT22;49010;51.230;-2.306;2022-08-19T14:58:39;33.50;31.50
62916;DHT22;49010;51.230;-2.306;2022-08-19T15:02:24;32.50;32.50
62916;DHT22;49010;51.230;-2.306;2022-08-19T15:06:15;31.80;33.30
62916;DHT22;49010;51.230;-2.306;2022-08-19T15:09:58;31.10;33.90
62916;DHT22;49010;51.230;-2.306;2022-08-19T15:13:40;30.60;34.20
62916;DHT22;49010;51.230;-2.306;2022-08-19T15:17:23;30.20;34.60
62916;DHT22;49010;51.230;-2.306;2022-08-19T15:21:26;30.10;35.30
62916;DHT22;49010;51.230;-2.306;2022-08-19T15:25:10;30.30;34.50
62916;DHT22;49010;51.230;-2.306;2022-08-19T15:28:52;30.40;34.00
62916;DHT22;49010;51.230;-2.306;2022-08-19T15:32:34;30.30;34.60
62916;DHT22;49010;51.230;-2.306;2022-08-19T15:36:17;29.80;35.10
62916;DHT22;49010;51.230;-2.306;2022-08-19T15:39:59;29.40;36.00
62916;DHT22;49010;51.230;-2.306;2022-08-19T15:43:41;29.00;36.40
62916;DHT22;49010;51.230;-2.306;2022-08-19T15:47:23;28.70;37.20
62916;DHT22;49010;51.230;-2.306;2022-08-19T15:51:05;28.60;37.10
62916;DHT22;49010;51.230;-2.306;2022-08-19T15:54:47;28.60;36.70
62916;DHT22;49010;51.230;-2.306;2022-08-19T15:58:29;28.60;36.90
62916;DHT22;49010;51.230;-2.306;2022-08-19T16:02:29;28.60;37.60
62916;DHT22;49010;51.230;-2.306;2022-08-19T16:06:34;28.50;37.10
62916;DHT22;49010;51.230;-2.306;2022-08-19T16:10:16;28.30;37.20
62916;DHT22;49010;51.230;-2.306;2022-08-19T16:14:08;28.10;38.20
62916;DHT22;49010;51.230;-2.306;2022-08-19T16:17:50;28.00;38.50
62916;DHT22;49010;51.230;-2.306;2022-08-19T16:21:38;27.90;39.10
62916;DHT22;49010;51.230;-2.306;2022-08-19T16:25:22;27.70;39.50
62916;DHT22;49010;51.230;-2.306;2022-08-19T16:29:08;27.50;39.60
62916;DHT22;49010;51.230;-2.306;2022-08-19T16:32:53;27.40;40.10
62916;DHT22;49010;51.230;-2.306;2022-08-19T16:36:35;27.20;40.10
62916;DHT22;49010;51.230;-2.306;2022-08-19T16:40:17;27.00;40.60
62916;DHT22;49010;51.230;-2.306;2022-08-19T16:43:59;26.90;41.60
62916;DHT22;49010;51.230;-2.306;2022-08-19T16:47:41;26.90;41.90
62916;DHT22;49010;51.230;-2.306;2022-08-19T16:51:23;26.80;42.60
62916;DHT22;49010;51.230;-2.306;2022-08-19T16:55:05;26.80;43.20
62916;DHT22;49010;51.230;-2.306;2022-08-19T16:58:48;26.70;43.30
62916;DHT22;49010;51.230;-2.306;2022-08-19T17:02:31;26.50;43.60
62916;DHT22;49010;51.230;-2.306;2022-08-19T17:06:16;26.40;43.10
62916;DHT22;49010;51.230;-2.306;2022-08-19T17:10:03;26.30;42.70
62916;DHT22;49010;51.230;-2.306;2022-08-19T17:13:46;26.20;41.40
62916;DHT22;49010;51.230;-2.306;2022-08-19T17:17:30;26.00;40.80
62916;DHT22;49010;51.230;-2.306;2022-08-19T17:21:12;25.80;41.10
62916;DHT22;49010;51.230;-2.306;2022-08-19T17:24:54;25.60;41.60
62916;DHT22;49010;51.230;-2.306;2022-08-19T17:28:39;25.50;41.40
62916;DHT22;49010;51.230;-2.306;2022-08-19T17:32:23;25.40;42.30
62916;DHT22;49010;51.230;-2.306;2022-08-19T17:36:06;25.30;42.40
62916;DHT22;49010;51.230;-2.306;2022-08-19T17:39:48;25.30;42.20
62916;DHT22;49010;51.230;-2.306;2022-08-19T17:43:32;25.20;41.60
62916;DHT22;49010;51.230;-2.306;2022-08-19T17:47:20;24.90;42.30
62916;DHT22;49010;51.230;-2.306;2022-08-19T17:55:12;24.70;42.30
62916;DHT22;49010;51.230;-2.306;2022-08-19T17:58:54;24.60;42.50
62916;DHT22;49010;51.230;-2.306;2022-08-19T18:02:53;24.60;42.90
62916;DHT22;49010;51.230;-2.306;2022-08-19T18:06:36;24.50;43.70
62916;DHT22;49010;51.230;-2.306;2022-08-19T18:10:19;24.40;44.90
62916;DHT22;49010;51.230;-2.306;2022-08-19T18:14:02;24.20;45.70
62916;DHT22;49010;51.230;-2.306;2022-08-19T18:17:44;24.10;46.90
62916;DHT22;49010;51.230;-2.306;2022-08-19T18:21:26;24.00;47.00
62916;DHT22;49010;51.230;-2.306;2022-08-19T18:25:15;23.80;46.60
62916;DHT22;49010;51.230;-2.306;2022-08-19T18:29:03;23.80;45.40
62916;DHT22;49010;51.230;-2.306;2022-08-19T18:32:45;23.70;48.10
62916;DHT22;49010;51.230;-2.306;2022-08-19T18:36:30;23.60;48.40
62916;DHT22;49010;51.230;-2.306;2022-08-19T18:40:33;23.50;48.10
62916;DHT22;49010;51.230;-2.306;2022-08-19T18:44:34;23.40;48.40
62916;DHT22;49010;51.230;-2.306;2022-08-19T18:48:40;23.30;47.70
62916;DHT22;49010;51.230;-2.306;2022-08-19T18:52:41;23.10;48.50
62916;DHT22;49010;51.230;-2.306;2022-08-19T18:56:23;22.90;49.20
62916;DHT22;49010;51.230;-2.306;2022-08-19T19:00:09;22.80;50.40
62916;DHT22;49010;51.230;-2.306;2022-08-19T19:03:52;22.80;50.80
62916;DHT22;49010;51.230;-2.306;2022-08-19T19:07:35;22.80;50.90
62916;DHT22;49010;51.230;-2.306;2022-08-19T19:11:21;22.80;50.60
62916;DHT22;49010;51.230;-2.306;2022-08-19T19:15:04;22.80;51.10
62916;DHT22;49010;51.230;-2.306;2022-08-19T19:18:50;22.80;51.50
62916;DHT22;49010;51.230;-2.306;2022-08-19T19:22:33;22.70;51.80
62916;DHT22;49010;51.230;-2.306;2022-08-19T19:26:15;22.80;52.40
62916;DHT22;49010;51.230;-2.306;2022-08-19T19:29:58;22.80;52.30
62916;DHT22;49010;51.230;-2.306;2022-08-19T19:33:40;22.60;52.80
62916;DHT22;49010;51.230;-2.306;2022-08-19T19:37:22;22.60;53.10
62916;DHT22;49010;51.230;-2.306;2022-08-19T19:41:04;22.50;53.60
62916;DHT22;49010;51.230;-2.306;2022-08-19T19:44:48;22.50;52.90
62916;DHT22;49010;51.230;-2.306;2022-08-19T19:48:31;22.40;52.60
62916;DHT22;49010;51.230;-2.306;2022-08-19T19:52:13;22.30;52.80
62916;DHT22;49010;51.230;-2.306;2022-08-19T19:55:56;22.30;52.00
62916;DHT22;49010;51.230;-2.306;2022-08-19T19:59:42;22.20;52.10
62916;DHT22;49010;51.230;-2.306;2022-08-19T20:03:32;22.10;52.20
62916;DHT22;49010;51.230;-2.306;2022-08-19T20:07:14;22.10;52.70
62916;DHT22;49010;51.230;-2.306;2022-08-19T20:11:00;22.10;52.70
62916;DHT22;49010;51.230;-2.306;2022-08-19T20:14:42;22.00;53.20
62916;DHT22;49010;51.230;-2.306;2022-08-19T20:18:24;22.00;52.30
62916;DHT22;49010;51.230;-2.306;2022-08-19T20:22:06;21.90;53.50
62916;DHT22;49010;51.230;-2.306;2022-08-19T20:25:49;21.80;53.10
62916;DHT22;49010;51.230;-2.306;2022-08-19T20:29:31;21.80;53.40
62916;DHT22;49010;51.230;-2.306;2022-08-19T20:33:20;21.70;54.00
62916;DHT22;49010;51.230;-2.306;2022-08-19T20:37:02;21.50;54.50
62916;DHT22;49010;51.230;-2.306;2022-08-19T20:40:45;21.50;55.10
62916;DHT22;49010;51.230;-2.306;2022-08-19T20:44:27;21.30;55.00
62916;DHT22;49010;51.230;-2.306;2022-08-19T20:48:09;21.20;55.50
62916;DHT22;49010;51.230;-2.306;2022-08-19T20:51:53;21.10;56.20
62916;DHT22;49010;51.230;-2.306;2022-08-19T20:55:35;21.00;56.50
62916;DHT22;49010;51.230;-2.306;2022-08-19T20:59:18;20.80;56.90
62916;DHT22;49010;51.230;-2.306;2022-08-19T21:03:00;20.80;57.30
62916;DHT22;49010;51.230;-2.306;2022-08-19T21:06:42;20.70;57.70
62916;DHT22;49010;51.230;-2.306;2022-08-19T21:10:26;20.60;58.20
62916;DHT22;49010;51.230;-2.306;2022-08-19T21:14:08;20.40;58.80
62916;DHT22;49010;51.230;-2.306;2022-08-19T21:17:50;20.30;59.00
62916;DHT22;49010;51.230;-2.306;2022-08-19T21:21:32;20.30;59.50
62916;DHT22;49010;51.230;-2.306;2022-08-19T21:25:16;20.30;59.90
62916;DHT22;49010;51.230;-2.306;2022-08-19T21:28:58;20.20;59.90
62916;DHT22;49010;51.230;-2.306;2022-08-19T21:32:40;20.20;60.10
62916;DHT22;49010;51.230;-2.306;2022-08-19T21:36:22;20.10;60.40
62916;DHT22;49010;51.230;-2.306;2022-08-19T21:40:06;20.00;60.50
62916;DHT22;49010;51.230;-2.306;2022-08-19T21:43:48;20.00;61.00
62916;DHT22;49010;51.230;-2.306;2022-08-19T21:47:30;19.90;61.20
62916;DHT22;49010;51.230;-2.306;2022-08-19T21:51:12;19.90;61.30
62916;DHT22;49010;51.230;-2.306;2022-08-19T21:54:55;19.80;61.10
62916;DHT22;49010;51.230;-2.306;2022-08-19T21:58:37;19.80;61.40
62916;DHT22;49010;51.230;-2.306;2022-08-19T22:02:19;19.70;61.30
62916;DHT22;49010;51.230;-2.306;2022-08-19T22:06:02;19.70;61.50
62916;DHT22;49010;51.230;-2.306;2022-08-19T22:09:45;19.60;61.80
62916;DHT22;49010;51.230;-2.306;2022-08-19T22:13:30;19.60;61.70
62916;DHT22;49010;51.230;-2.306;2022-08-19T22:17:21;19.60;61.80
62916;DHT22;49010;51.230;-2.306;2022-08-19T22:21:03;19.50;62.10
62916;DHT22;49010;51.230;-2.306;2022-08-19T22:24:59;19.40;62.40
62916;DHT22;49010;51.230;-2.306;2022-08-19T22:28:42;19.40;62.60
62916;DHT22;49010;51.230;-2.306;2022-08-19T22:32:24;19.40;62.70
62916;DHT22;49010;51.230;-2.306;2022-08-19T22:36:09;19.40;63.10
62916;DHT22;49010;51.230;-2.306;2022-08-19T22:39:51;19.40;63.60
62916;DHT22;49010;51.230;-2.306;2022-08-19T22:43:33;19.30;63.90
62916;DHT22;49010;51.230;-2.306;2022-08-19T22:47:15;19.30;63.90
62916;DHT22;49010;51.230;-2.306;2022-08-19T22:50:58;19.30;64.10
62916;DHT22;49010;51.230;-2.306;2022-08-19T22:55:00;19.20;63.90
62916;DHT22;49010;51.230;-2.306;2022-08-19T22:58:43;19.20;64.00
62916;DHT22;49010;51.230;-2.306;2022-08-19T23:02:28;19.00;64.20
62916;DHT22;49010;51.230;-2.306;2022-08-19T23:06:12;19.00;64.60
62916;DHT22;49010;51.230;-2.306;2022-08-19T23:09:55;18.90;64.60
62916;DHT22;49010;51.230;-2.306;2022-08-19T23:13:39;18.80;64.80
62916;DHT22;49010;51.230;-2.306;2022-08-19T23:17:21;18.70;65.30
62916;DHT22;49010;51.230;-2.306;2022-08-19T23:21:04;18.60;65.60